Beckley, WV

2:44 AM EDT on April 24, 2017 (GMT -0400)
Sprague | | Change Station

Elev 2459 ft 37.79 °N, 81.18 °W | Updated 33 seconds ago

Rain
Rain
44.6 °F
Feels Like 45 °F
N
0.0
Wind Variable Wind from East

Today
High -- | Low -- °F
--% Chance of Precip.
Yesterday
High -- | Low -- °F
Precip. -- in
Pressure 29.94 in
Visibility 10.0 miles
Clouds Overcast 8000 ft
Windchill 45 °F
Dew Point 42 °F
Humidity 91%
Rainfall 0.05 in
Snow Depth Not available.
6:37 AM 8:09 PM
Waning Crescent, 7% visible
METAR KBKW 240551Z AUTO 11011G20KT 10SM -RA OVC080 08/06 A2994 RMK AO2 SLP138 P0005 60015 T00780056 10083 20072 58019 TSNO $
Pressure 29.94 in
Visibility 10.0 miles
Clouds Overcast 8000 ft
Windchill 45 °F
Dew Point 42 °F
Humidity 91%
Rainfall 0.05 in
Snow Depth Not available.
6:37 AM 8:09 PM
Waning Crescent, 7% visible
METAR KBKW 240551Z AUTO 11011G20KT 10SM -RA OVC080 08/06 A2994 RMK AO2 SLP138 P0005 60015 T00780056 10083 20072 58019 TSNO $

Get Severe Weather Alerts

Thanks for signing up!

Be on the lookout for a verification email in your inbox.

You'll start receiving the daily forecast at 8 AM.

×

10-Day Weather Forecast

Almanac

Astronomy

Apr. 24, 2017 Rise Set
Actual Time
Civil Twilight
Nautical Twilight
Astronomical Twilight
Moon
Length of Visible Light
Length of Day
Tomorrow will be .
, % of the Moon is Illuminated

Today's Extremes

State Highs State Lows

Community

WunderPhotos

WunderBlog® & News

Nearby

Air Quality

  Air Quality AQ Index Pollutant
Not available.

Snow Depth

Station Depth Elevation

Earthquake Activity

City Distance Mag. Time & Date
Minimum magnitude displayed is 2.5.

Coastal Water Temperatures

Place Temperature

Stations

Nearby Weather Stations

Station Location Temp. Windchill Dew Point Humidity Wind Precip. Elev Updated Type
                   

Watches & Warnings

There are currently no watches in effect.